sensor_id;sensor_type;location;lat;lon;timestamp;P1;durP1;ratioP1;P2;durP2;ratioP2
77738;SDS011;66904;59.926;30.404;2023-01-26T00:04:59;0.45;;;0.25;;
77738;SDS011;66904;59.926;30.404;2023-01-26T00:16:00;0.52;;;0.20;;
77738;SDS011;66904;59.926;30.404;2023-01-26T00:21:29;0.70;;;0.30;;
77738;SDS011;66904;59.926;30.404;2023-01-26T00:26:30;0.10;;;0.10;;
77738;SDS011;66904;59.926;30.404;2023-01-26T00:31:45;0.28;;;0.10;;
77738;SDS011;66904;59.926;30.404;2023-01-26T00:36:51;0.65;;;0.22;;
77738;SDS011;66904;59.926;30.404;2023-01-26T00:42:03;0.47;;;0.28;;
77738;SDS011;66904;59.926;30.404;2023-01-26T00:47:23;0.60;;;0.20;;
77738;SDS011;66904;59.926;30.404;2023-01-26T00:52:23;0.38;;;0.10;;
77738;SDS011;66904;59.926;30.404;2023-01-26T00:57:33;1.80;;;0.20;;
77738;SDS011;66904;59.926;30.404;2023-01-26T01:02:43;0.82;;;0.35;;
77738;SDS011;66904;59.926;30.404;2023-01-26T01:07:43;0.40;;;0.10;;
77738;SDS011;66904;59.926;30.404;2023-01-26T01:18:37;0.60;;;0.30;;
77738;SDS011;66904;59.926;30.404;2023-01-26T01:23:41;0.52;;;0.30;;
77738;SDS011;66904;59.926;30.404;2023-01-26T01:28:52;0.50;;;0.20;;
77738;SDS011;66904;59.926;30.404;2023-01-26T01:34:17;0.65;;;0.22;;
77738;SDS011;66904;59.926;30.404;2023-01-26T01:39:23;0.63;;;0.28;;
77738;SDS011;66904;59.926;30.404;2023-01-26T01:50:07;0.22;;;0.13;;
77738;SDS011;66904;59.926;30.404;2023-01-26T01:55:15;0.35;;;0.20;;
77738;SDS011;66904;59.926;30.404;2023-01-26T02:00:17;0.52;;;0.13;;
77738;SDS011;66904;59.926;30.404;2023-01-26T02:05:28;0.50;;;0.30;;
77738;SDS011;66904;59.926;30.404;2023-01-26T02:10:34;4.95;;;0.55;;
77738;SDS011;66904;59.926;30.404;2023-01-26T02:15:36;0.35;;;0.10;;
77738;SDS011;66904;59.926;30.404;2023-01-26T02:35:54;1.35;;;0.20;;
77738;SDS011;66904;59.926;30.404;2023-01-26T02:40:57;0.25;;;0.13;;
77738;SDS011;66904;59.926;30.404;2023-01-26T02:46:02;0.80;;;0.10;;
77738;SDS011;66904;59.926;30.404;2023-01-26T02:51:03;0.77;;;0.10;;
77738;SDS011;66904;59.926;30.404;2023-01-26T02:56:04;0.50;;;0.17;;
77738;SDS011;66904;59.926;30.404;2023-01-26T03:01:04;0.25;;;0.20;;
77738;SDS011;66904;59.926;30.404;2023-01-26T03:06:05;0.45;;;0.17;;
77738;SDS011;66904;59.926;30.404;2023-01-26T03:11:10;0.25;;;0.10;;
77738;SDS011;66904;59.926;30.404;2023-01-26T03:16:32;0.50;;;0.30;;
77738;SDS011;66904;59.926;30.404;2023-01-26T03:21:32;0.38;;;0.30;;
77738;SDS011;66904;59.926;30.404;2023-01-26T03:26:51;0.47;;;0.15;;
77738;SDS011;66904;59.926;30.404;2023-01-26T03:32:10;0.22;;;0.13;;
77738;SDS011;66904;59.926;30.404;2023-01-26T03:37:11;0.30;;;0.13;;
77738;SDS011;66904;59.926;30.404;2023-01-26T03:42:12;0.30;;;0.10;;
77738;SDS011;66904;59.926;30.404;2023-01-26T03:47:31;0.32;;;0.20;;
77738;SDS011;66904;59.926;30.404;2023-01-26T03:52:51;0.32;;;0.10;;
77738;SDS011;66904;59.926;30.404;2023-01-26T03:58:10;0.30;;;0.10;;
77738;SDS011;66904;59.926;30.404;2023-01-26T04:03:10;0.10;;;0.10;;
77738;SDS011;66904;59.926;30.404;2023-01-26T04:08:29;0.40;;;0.10;;
77738;SDS011;66904;59.926;30.404;2023-01-26T04:13:30;0.40;;;0.20;;
77738;SDS011;66904;59.926;30.404;2023-01-26T04:18:49;0.73;;;0.20;;
77738;SDS011;66904;59.926;30.404;2023-01-26T04:24:07;0.35;;;0.30;;
77738;SDS011;66904;59.926;30.404;2023-01-26T04:29:13;0.30;;;0.10;;
77738;SDS011;66904;59.926;30.404;2023-01-26T04:34:14;0.50;;;0.20;;
77738;SDS011;66904;59.926;30.404;2023-01-26T04:39:15;0.60;;;0.25;;
77738;SDS011;66904;59.926;30.404;2023-01-26T04:44:16;3.42;;;0.50;;
77738;SDS011;66904;59.926;30.404;2023-01-26T04:49:16;0.73;;;0.22;;
77738;SDS011;66904;59.926;30.404;2023-01-26T04:54:17;1.03;;;0.10;;
77738;SDS011;66904;59.926;30.404;2023-01-26T05:01:48;0.20;;;0.20;;
77738;SDS011;66904;59.926;30.404;2023-01-26T05:06:49;0.75;;;0.30;;
77738;SDS011;66904;59.926;30.404;2023-01-26T05:11:50;0.43;;;0.20;;
77738;SDS011;66904;59.926;30.404;2023-01-26T05:16:50;0.50;;;0.20;;
77738;SDS011;66904;59.926;30.404;2023-01-26T05:21:51;0.47;;;0.32;;
77738;SDS011;66904;59.926;30.404;2023-01-26T05:26:51;0.63;;;0.30;;
77738;SDS011;66904;59.926;30.404;2023-01-26T05:32:11;1.48;;;0.30;;
77738;SDS011;66904;59.926;30.404;2023-01-26T05:37:12;0.57;;;0.20;;
77738;SDS011;66904;59.926;30.404;2023-01-26T05:42:13;1.88;;;0.25;;
77738;SDS011;66904;59.926;30.404;2023-01-26T05:47:13;0.32;;;0.15;;
77738;SDS011;66904;59.926;30.404;2023-01-26T05:52:15;0.52;;;0.30;;
77738;SDS011;66904;59.926;30.404;2023-01-26T05:57:17;0.90;;;0.30;;
77738;SDS011;66904;59.926;30.404;2023-01-26T06:02:18;0.35;;;0.10;;
77738;SDS011;66904;59.926;30.404;2023-01-26T06:07:19;0.70;;;0.28;;
77738;SDS011;66904;59.926;30.404;2023-01-26T06:12:19;1.48;;;0.30;;
77738;SDS011;66904;59.926;30.404;2023-01-26T06:17:21;0.50;;;0.20;;
77738;SDS011;66904;59.926;30.404;2023-01-26T06:22:21;0.77;;;0.20;;
77738;SDS011;66904;59.926;30.404;2023-01-26T06:27:22;0.32;;;0.13;;
77738;SDS011;66904;59.926;30.404;2023-01-26T06:32:22;0.80;;;0.22;;
77738;SDS011;66904;59.926;30.404;2023-01-26T06:37:24;1.13;;;0.30;;
77738;SDS011;66904;59.926;30.404;2023-01-26T06:42:24;1.02;;;0.45;;
77738;SDS011;66904;59.926;30.404;2023-01-26T06:47:25;0.60;;;0.22;;
77738;SDS011;66904;59.926;30.404;2023-01-26T06:52:26;1.70;;;0.40;;
77738;SDS011;66904;59.926;30.404;2023-01-26T06:57:30;0.63;;;0.30;;
77738;SDS011;66904;59.926;30.404;2023-01-26T07:02:31;0.90;;;0.30;;
77738;SDS011;66904;59.926;30.404;2023-01-26T07:07:31;0.70;;;0.30;;
77738;SDS011;66904;59.926;30.404;2023-01-26T07:12:41;0.77;;;0.32;;
77738;SDS011;66904;59.926;30.404;2023-01-26T07:17:44;0.60;;;0.30;;
77738;SDS011;66904;59.926;30.404;2023-01-26T07:22:44;0.82;;;0.30;;
77738;SDS011;66904;59.926;30.404;2023-01-26T07:27:45;0.57;;;0.22;;
77738;SDS011;66904;59.926;30.404;2023-01-26T07:32:45;0.77;;;0.35;;
77738;SDS011;66904;59.926;30.404;2023-01-26T07:37:46;0.70;;;0.30;;
77738;SDS011;66904;59.926;30.404;2023-01-26T07:42:46;0.75;;;0.38;;
77738;SDS011;66904;59.926;30.404;2023-01-26T07:47:47;0.90;;;0.40;;
77738;SDS011;66904;59.926;30.404;2023-01-26T07:52:47;0.60;;;0.20;;
77738;SDS011;66904;59.926;30.404;2023-01-26T07:57:48;0.73;;;0.30;;
77738;SDS011;66904;59.926;30.404;2023-01-26T08:02:49;0.50;;;0.20;;
77738;SDS011;66904;59.926;30.404;2023-01-26T08:07:50;0.47;;;0.30;;
77738;SDS011;66904;59.926;30.404;2023-01-26T08:12:50;1.02;;;0.38;;
77738;SDS011;66904;59.926;30.404;2023-01-26T08:17:52;0.93;;;0.45;;
77738;SDS011;66904;59.926;30.404;2023-01-26T08:22:53;1.15;;;0.43;;
77738;SDS011;66904;59.926;30.404;2023-01-26T08:27:53;0.67;;;0.30;;
77738;SDS011;66904;59.926;30.404;2023-01-26T08:32:54;2.65;;;0.57;;
77738;SDS011;66904;59.926;30.404;2023-01-26T08:37:55;0.97;;;0.30;;
77738;SDS011;66904;59.926;30.404;2023-01-26T08:42:58;1.08;;;0.40;;
77738;SDS011;66904;59.926;30.404;2023-01-26T08:47:59;0.60;;;0.22;;
77738;SDS011;66904;59.926;30.404;2023-01-26T08:52:59;0.70;;;0.40;;
77738;SDS011;66904;59.926;30.404;2023-01-26T08:58:00;1.08;;;0.47;;
77738;SDS011;66904;59.926;30.404;2023-01-26T09:03:01;0.77;;;0.40;;
77738;SDS011;66904;59.926;30.404;2023-01-26T09:08:04;2.05;;;0.40;;
77738;SDS011;66904;59.926;30.404;2023-01-26T09:13:06;0.35;;;0.22;;
77738;SDS011;66904;59.926;30.404;2023-01-26T09:18:07;0.90;;;0.22;;
77738;SDS011;66904;59.926;30.404;2023-01-26T09:23:10;0.75;;;0.32;;
77738;SDS011;66904;59.926;30.404;2023-01-26T09:28:11;1.50;;;0.30;;
77738;SDS011;66904;59.926;30.404;2023-01-26T09:33:12;0.77;;;0.35;;
77738;SDS011;66904;59.926;30.404;2023-01-26T09:38:12;0.60;;;0.30;;
77738;SDS011;66904;59.926;30.404;2023-01-26T09:43:15;1.13;;;0.30;;
77738;SDS011;66904;59.926;30.404;2023-01-26T09:48:21;0.50;;;0.20;;
77738;SDS011;66904;59.926;30.404;2023-01-26T09:58:42;0.57;;;0.32;;
77738;SDS011;66904;59.926;30.404;2023-01-26T10:09:24;0.95;;;0.43;;
77738;SDS011;66904;59.926;30.404;2023-01-26T10:14:35;0.77;;;0.30;;
77738;SDS011;66904;59.926;30.404;2023-01-26T10:19:44;0.75;;;0.40;;
77738;SDS011;66904;59.926;30.404;2023-01-26T10:24:52;0.75;;;0.32;;
77738;SDS011;66904;59.926;30.404;2023-01-26T10:29:56;0.60;;;0.32;;
77738;SDS011;66904;59.926;30.404;2023-01-26T10:34:56;1.30;;;0.43;;
77738;SDS011;66904;59.926;30.404;2023-01-26T10:39:58;1.23;;;0.43;;
77738;SDS011;66904;59.926;30.404;2023-01-26T10:44:59;0.60;;;0.32;;
77738;SDS011;66904;59.926;30.404;2023-01-26T10:55:20;0.70;;;0.43;;
77738;SDS011;66904;59.926;30.404;2023-01-26T11:05:22;0.32;;;0.20;;
77738;SDS011;66904;59.926;30.404;2023-01-26T11:15:24;0.60;;;0.43;;
77738;SDS011;66904;59.926;30.404;2023-01-26T11:41:42;0.80;;;0.40;;
77738;SDS011;66904;59.926;30.404;2023-01-26T11:47:15;2.22;;;0.60;;
77738;SDS011;66904;59.926;30.404;2023-01-26T12:03:11;0.80;;;0.38;;
77738;SDS011;66904;59.926;30.404;2023-01-26T12:08:27;1.30;;;0.40;;
77738;SDS011;66904;59.926;30.404;2023-01-26T12:13:38;0.60;;;0.30;;
77738;SDS011;66904;59.926;30.404;2023-01-26T12:18:47;0.45;;;0.22;;
77738;SDS011;66904;59.926;30.404;2023-01-26T12:24:01;0.73;;;0.20;;
77738;SDS011;66904;59.926;30.404;2023-01-26T12:29:14;0.52;;;0.20;;
77738;SDS011;66904;59.926;30.404;2023-01-26T12:34:25;1.17;;;0.52;;
77738;SDS011;66904;59.926;30.404;2023-01-26T12:44:50;1.15;;;0.30;;
77738;SDS011;66904;59.926;30.404;2023-01-26T13:00:23;1.70;;;0.30;;
77738;SDS011;66904;59.926;30.404;2023-01-26T13:05:31;0.30;;;0.22;;
77738;SDS011;66904;59.926;30.404;2023-01-26T13:10:45;1.17;;;0.35;;
77738;SDS011;66904;59.926;30.404;2023-01-26T13:16:06;2.33;;;0.20;;
77738;SDS011;66904;59.926;30.404;2023-01-26T13:31:33;0.63;;;0.20;;
77738;SDS011;66904;59.926;30.404;2023-01-26T13:36:34;0.28;;;0.10;;
77738;SDS011;66904;59.926;30.404;2023-01-26T13:41:45;0.38;;;0.15;;
77738;SDS011;66904;59.926;30.404;2023-01-26T13:47:04;0.45;;;0.20;;
77738;SDS011;66904;59.926;30.404;2023-01-26T13:52:26;0.85;;;0.30;;
77738;SDS011;66904;59.926;30.404;2023-01-26T13:57:28;0.80;;;0.30;;
77738;SDS011;66904;59.926;30.404;2023-01-26T14:02:33;1.02;;;0.30;;
77738;SDS011;66904;59.926;30.404;2023-01-26T14:07:35;1.10;;;0.30;;
77738;SDS011;66904;59.926;30.404;2023-01-26T14:17:47;1.45;;;0.20;;
77738;SDS011;66904;59.926;30.404;2023-01-26T14:28:14;0.57;;;0.13;;
77738;SDS011;66904;59.926;30.404;2023-01-26T14:33:16;1.83;;;0.20;;
77738;SDS011;66904;59.926;30.404;2023-01-26T14:38:17;1.02;;;0.32;;
77738;SDS011;66904;59.926;30.404;2023-01-26T14:43:19;1.20;;;0.20;;
77738;SDS011;66904;59.926;30.404;2023-01-26T14:48:21;2.80;;;0.20;;
77738;SDS011;66904;59.926;30.404;2023-01-26T14:53:25;0.80;;;0.20;;
77738;SDS011;66904;59.926;30.404;2023-01-26T14:58:27;0.93;;;0.22;;
77738;SDS011;66904;59.926;30.404;2023-01-26T15:03:32;1.02;;;0.30;;
77738;SDS011;66904;59.926;30.404;2023-01-26T15:08:36;0.50;;;0.15;;
77738;SDS011;66904;59.926;30.404;2023-01-26T15:13:39;0.63;;;0.20;;
77738;SDS011;66904;59.926;30.404;2023-01-26T15:18:40;0.73;;;0.10;;
77738;SDS011;66904;59.926;30.404;2023-01-26T15:23:42;0.93;;;0.25;;
77738;SDS011;66904;59.926;30.404;2023-01-26T15:28:48;0.32;;;0.25;;
77738;SDS011;66904;59.926;30.404;2023-01-26T15:33:51;0.38;;;0.22;;
77738;SDS011;66904;59.926;30.404;2023-01-26T15:39:00;0.50;;;0.30;;
77738;SDS011;66904;59.926;30.404;2023-01-26T15:44:04;1.50;;;0.20;;
77738;SDS011;66904;59.926;30.404;2023-01-26T15:49:14;0.50;;;0.13;;
77738;SDS011;66904;59.926;30.404;2023-01-26T15:54:18;3.40;;;0.30;;
77738;SDS011;66904;59.926;30.404;2023-01-26T15:59:19;1.00;;;0.63;;
77738;SDS011;66904;59.926;30.404;2023-01-26T16:04:20;2.03;;;0.22;;
77738;SDS011;66904;59.926;30.404;2023-01-26T16:09:23;0.85;;;0.13;;
77738;SDS011;66904;59.926;30.404;2023-01-26T16:14:24;2.22;;;0.45;;
77738;SDS011;66904;59.926;30.404;2023-01-26T16:19:24;1.88;;;0.30;;
77738;SDS011;66904;59.926;30.404;2023-01-26T16:24:24;0.43;;;0.28;;
77738;SDS011;66904;59.926;30.404;2023-01-26T16:29:25;1.25;;;0.17;;
77738;SDS011;66904;59.926;30.404;2023-01-26T16:34:26;1.55;;;0.50;;
77738;SDS011;66904;59.926;30.404;2023-01-26T16:39:27;1.77;;;0.32;;
77738;SDS011;66904;59.926;30.404;2023-01-26T16:44:28;0.80;;;0.30;;
77738;SDS011;66904;59.926;30.404;2023-01-26T16:49:29;0.52;;;0.20;;
77738;SDS011;66904;59.926;30.404;2023-01-26T16:54:29;0.75;;;0.30;;
77738;SDS011;66904;59.926;30.404;2023-01-26T16:59:30;1.33;;;0.50;;
77738;SDS011;66904;59.926;30.404;2023-01-26T17:04:30;0.65;;;0.22;;
77738;SDS011;66904;59.926;30.404;2023-01-26T17:09:31;0.75;;;0.40;;
77738;SDS011;66904;59.926;30.404;2023-01-26T17:14:31;1.00;;;0.40;;
77738;SDS011;66904;59.926;30.404;2023-01-26T17:19:32;0.73;;;0.40;;
77738;SDS011;66904;59.926;30.404;2023-01-26T17:24:32;0.70;;;0.32;;
77738;SDS011;66904;59.926;30.404;2023-01-26T17:29:33;2.58;;;0.70;;
77738;SDS011;66904;59.926;30.404;2023-01-26T17:34:33;0.80;;;0.30;;
77738;SDS011;66904;59.926;30.404;2023-01-26T17:39:34;1.42;;;0.57;;
77738;SDS011;66904;59.926;30.404;2023-01-26T17:44:34;1.30;;;0.70;;
77738;SDS011;66904;59.926;30.404;2023-01-26T17:49:35;1.05;;;0.43;;
77738;SDS011;66904;59.926;30.404;2023-01-26T17:54:37;1.25;;;0.65;;
77738;SDS011;66904;59.926;30.404;2023-01-26T17:59:40;1.65;;;0.80;;
77738;SDS011;66904;59.926;30.404;2023-01-26T18:04:41;1.10;;;0.50;;
77738;SDS011;66904;59.926;30.404;2023-01-26T18:09:41;2.50;;;0.85;;
77738;SDS011;66904;59.926;30.404;2023-01-26T18:14:41;1.95;;;1.00;;
77738;SDS011;66904;59.926;30.404;2023-01-26T18:19:42;2.05;;;0.77;;
77738;SDS011;66904;59.926;30.404;2023-01-26T18:24:43;4.15;;;0.80;;
77738;SDS011;66904;59.926;30.404;2023-01-26T18:29:43;1.60;;;0.80;;
77738;SDS011;66904;59.926;30.404;2023-01-26T18:34:44;1.13;;;0.57;;
77738;SDS011;66904;59.926;30.404;2023-01-26T18:39:44;1.00;;;0.50;;
77738;SDS011;66904;59.926;30.404;2023-01-26T18:44:45;1.10;;;0.60;;
77738;SDS011;66904;59.926;30.404;2023-01-26T18:49:45;1.90;;;0.75;;
77738;SDS011;66904;59.926;30.404;2023-01-26T18:54:46;1.27;;;0.35;;
77738;SDS011;66904;59.926;30.404;2023-01-26T18:59:46;2.33;;;0.65;;
77738;SDS011;66904;59.926;30.404;2023-01-26T19:04:47;2.75;;;0.50;;
77738;SDS011;66904;59.926;30.404;2023-01-26T19:09:48;1.13;;;0.52;;
77738;SDS011;66904;59.926;30.404;2023-01-26T19:14:48;1.53;;;0.60;;
77738;SDS011;66904;59.926;30.404;2023-01-26T19:19:49;1.80;;;0.70;;
77738;SDS011;66904;59.926;30.404;2023-01-26T19:24:49;1.35;;;0.70;;
77738;SDS011;66904;59.926;30.404;2023-01-26T19:29:50;2.03;;;0.98;;
77738;SDS011;66904;59.926;30.404;2023-01-26T19:34:50;1.05;;;0.60;;
77738;SDS011;66904;59.926;30.404;2023-01-26T19:39:51;1.88;;;0.90;;
77738;SDS011;66904;59.926;30.404;2023-01-26T19:44:51;1.30;;;0.57;;
77738;SDS011;66904;59.926;30.404;2023-01-26T19:49:52;1.70;;;0.60;;
77738;SDS011;66904;59.926;30.404;2023-01-26T19:54:52;1.27;;;0.60;;
77738;SDS011;66904;59.926;30.404;2023-01-26T19:59:53;3.17;;;0.98;;
77738;SDS011;66904;59.926;30.404;2023-01-26T20:04:53;1.05;;;0.57;;
77738;SDS011;66904;59.926;30.404;2023-01-26T20:09:54;1.05;;;0.50;;
77738;SDS011;66904;59.926;30.404;2023-01-26T20:14:54;1.58;;;0.43;;
77738;SDS011;66904;59.926;30.404;2023-01-26T20:19:55;2.15;;;0.60;;
77738;SDS011;66904;59.926;30.404;2023-01-26T20:24:55;1.13;;;0.47;;
77738;SDS011;66904;59.926;30.404;2023-01-26T20:29:56;1.23;;;0.47;;
77738;SDS011;66904;59.926;30.404;2023-01-26T20:34:57;1.13;;;0.50;;
77738;SDS011;66904;59.926;30.404;2023-01-26T20:39:57;2.85;;;0.82;;
77738;SDS011;66904;59.926;30.404;2023-01-26T20:44:58;1.70;;;0.75;;
77738;SDS011;66904;59.926;30.404;2023-01-26T20:49:58;1.45;;;0.65;;
77738;SDS011;66904;59.926;30.404;2023-01-26T20:54:59;1.30;;;0.70;;
77738;SDS011;66904;59.926;30.404;2023-01-26T21:00:01;1.40;;;0.60;;
77738;SDS011;66904;59.926;30.404;2023-01-26T21:05:03;1.08;;;0.43;;
77738;SDS011;66904;59.926;30.404;2023-01-26T21:10:05;0.70;;;0.28;;
77738;SDS011;66904;59.926;30.404;2023-01-26T21:15:05;0.95;;;0.35;;
77738;SDS011;66904;59.926;30.404;2023-01-26T21:20:06;0.88;;;0.43;;
77738;SDS011;66904;59.926;30.404;2023-01-26T21:25:08;1.02;;;0.40;;
77738;SDS011;66904;59.926;30.404;2023-01-26T21:30:09;0.65;;;0.30;;
77738;SDS011;66904;59.926;30.404;2023-01-26T21:35:10;1.48;;;0.30;;
77738;SDS011;66904;59.926;30.404;2023-01-26T21:40:13;0.60;;;0.20;;
77738;SDS011;66904;59.926;30.404;2023-01-26T21:45:13;1.00;;;0.30;;
77738;SDS011;66904;59.926;30.404;2023-01-26T21:50:49;0.88;;;0.35;;
77738;SDS011;66904;59.926;30.404;2023-01-26T22:01:48;0.35;;;0.17;;
77738;SDS011;66904;59.926;30.404;2023-01-26T22:07:14;0.60;;;0.30;;
77738;SDS011;66904;59.926;30.404;2023-01-26T22:12:36;0.30;;;0.10;;
77738;SDS011;66904;59.926;30.404;2023-01-26T22:17:36;0.28;;;0.13;;
77738;SDS011;66904;59.926;30.404;2023-01-26T22:22:37;2.38;;;0.32;;
77738;SDS011;66904;59.926;30.404;2023-01-26T22:27:43;0.90;;;0.20;;
77738;SDS011;66904;59.926;30.404;2023-01-26T22:32:47;0.77;;;0.35;;
77738;SDS011;66904;59.926;30.404;2023-01-26T22:37:47;0.63;;;0.20;;
77738;SDS011;66904;59.926;30.404;2023-01-26T22:43:00;0.77;;;0.20;;
77738;SDS011;66904;59.926;30.404;2023-01-26T22:48:29;1.30;;;0.25;;
77738;SDS011;66904;59.926;30.404;2023-01-26T22:53:47;0.77;;;0.20;;
77738;SDS011;66904;59.926;30.404;2023-01-26T22:59:15;0.98;;;0.20;;
77738;SDS011;66904;59.926;30.404;2023-01-26T23:04:16;0.50;;;0.20;;
77738;SDS011;66904;59.926;30.404;2023-01-26T23:09:19;0.30;;;0.27;;
77738;SDS011;66904;59.926;30.404;2023-01-26T23:20:34;0.50;;;0.30;;
77738;SDS011;66904;59.926;30.404;2023-01-26T23:25:35;0.70;;;0.10;;
77738;SDS011;66904;59.926;30.404;2023-01-26T23:30:54;0.82;;;0.17;;
77738;SDS011;66904;59.926;30.404;2023-01-26T23:36:05;0.10;;;0.00;;
77738;SDS011;66904;59.926;30.404;2023-01-26T23:41:06;0.30;;;0.13;;
77738;SDS011;66904;59.926;30.404;2023-01-26T23:46:11;0.50;;;0.10;;
77738;SDS011;66904;59.926;30.404;2023-01-26T23:51:12;0.40;;;0.10;;
77738;SDS011;66904;59.926;30.404;2023-01-26T23:56:15;0.82;;;0.13;;
